createdAt,value
2018-11-04T00:02:16.665Z,8.30
2018-11-04T00:04:44.971Z,8.20
2018-11-04T00:07:13.261Z,8.20
2018-11-04T00:09:41.638Z,8.20
2018-11-04T00:12:09.947Z,8.20
2018-11-04T00:14:38.861Z,8.20
2018-11-04T00:17:07.145Z,8.20
2018-11-04T00:19:35.461Z,8.20
2018-11-04T00:22:03.838Z,8.20
2018-11-04T00:24:32.124Z,8.20
2018-11-04T00:27:00.426Z,8.20
2018-11-04T00:29:28.741Z,8.20
2018-11-04T00:31:57.035Z,8.20
2018-11-04T00:34:25.324Z,8.20
2018-11-04T00:36:53.653Z,8.20
2018-11-04T00:39:21.941Z,8.20
2018-11-04T00:41:50.551Z,8.20
2018-11-04T00:44:18.835Z,8.20
2018-11-04T00:46:47.109Z,8.20
2018-11-04T00:49:15.409Z,8.20
2018-11-04T00:51:44.357Z,8.20
2018-11-04T00:54:12.653Z,8.20
2018-11-04T00:56:40.973Z,8.20
2018-11-04T00:59:09.273Z,8.20
2018-11-04T01:01:37.631Z,8.20
2018-11-04T01:04:05.927Z,8.20
2018-11-04T01:06:34.226Z,8.20
2018-11-04T01:09:02.564Z,8.20
2018-11-04T01:11:30.871Z,8.20
2018-11-04T01:13:59.161Z,8.20
2018-11-04T01:16:27.459Z,8.20
2018-11-04T01:18:55.793Z,8.20
2018-11-04T01:21:24.090Z,8.20
2018-11-04T01:23:53.375Z,8.20
2018-11-04T01:26:21.663Z,8.20
2018-11-04T01:28:50.009Z,8.20
2018-11-04T01:31:18.323Z,8.20
2018-11-04T01:33:47.375Z,8.20
2018-11-04T01:36:15.857Z,8.20
2018-11-04T01:38:44.163Z,8.20
2018-11-04T01:41:12.461Z,8.20
2018-11-04T01:43:40.744Z,8.20
2018-11-04T01:46:09.040Z,8.20
2018-11-04T01:48:37.310Z,8.20
2018-11-04T01:51:12.141Z,8.20
2018-11-04T01:53:40.438Z,8.20
2018-11-04T01:56:08.715Z,8.20
2018-11-04T01:58:37.245Z,8.20
2018-11-04T02:01:05.575Z,8.20
2018-11-04T02:03:33.874Z,8.20
2018-11-04T02:06:02.177Z,8.20
2018-11-04T02:08:30.460Z,8.20
2018-11-04T02:10:58.755Z,8.20
2018-11-04T02:13:27.081Z,8.20
2018-11-04T02:15:55.451Z,8.20
2018-11-04T02:18:23.726Z,8.20
2018-11-04T02:20:52.025Z,8.20
2018-11-04T02:23:20.405Z,8.20
2018-11-04T02:25:48.680Z,8.20
2018-11-04T02:28:16.977Z,8.20
2018-11-04T02:30:45.292Z,8.20
2018-11-04T02:33:13.577Z,8.20
2018-11-04T02:35:41.865Z,8.20
2018-11-04T02:38:10.147Z,8.20
2018-11-04T02:40:38.413Z,8.20
2018-11-04T02:43:06.679Z,8.20
2018-11-04T02:45:34.969Z,8.20
2018-11-04T02:48:03.298Z,8.20
2018-11-04T02:50:31.586Z,8.20
2018-11-04T02:52:59.950Z,8.20
2018-11-04T02:55:28.227Z,8.20
2018-11-04T02:57:56.527Z,8.20
2018-11-04T03:00:24.801Z,8.20
2018-11-04T03:02:53.069Z,8.20
2018-11-04T03:05:21.367Z,8.20
2018-11-04T03:07:49.657Z,8.20
2018-11-04T03:10:17.962Z,8.20
2018-11-04T03:12:46.244Z,8.20
2018-11-04T03:15:14.543Z,8.20
2018-11-04T03:17:42.839Z,8.20
2018-11-04T03:20:11.158Z,8.20
2018-11-04T03:22:39.454Z,8.20
2018-11-04T03:25:07.760Z,8.20
2018-11-04T03:27:36.063Z,8.20
2018-11-04T03:30:04.478Z,8.20
2018-11-04T03:32:32.765Z,8.20
2018-11-04T03:35:01.049Z,8.20
2018-11-04T03:37:29.335Z,8.20
2018-11-04T03:39:57.621Z,8.20
2018-11-04T03:42:25.889Z,8.20
2018-11-04T03:44:54.206Z,8.20
2018-11-04T03:47:22.505Z,8.20
2018-11-04T03:49:50.770Z,8.20
2018-11-04T03:52:19.057Z,8.20
2018-11-04T03:54:47.329Z,8.20
2018-11-04T03:57:15.605Z,8.20
2018-11-04T03:59:43.901Z,8.20
2018-11-04T04:02:12.205Z,8.20
2018-11-04T04:04:40.477Z,8.20
2018-11-04T04:07:08.739Z,8.20
2018-11-04T04:09:37.025Z,8.20
2018-11-04T04:12:05.946Z,8.20
2018-11-04T04:14:34.214Z,8.20
2018-11-04T04:17:02.505Z,8.20
2018-11-04T04:19:30.799Z,8.20
2018-11-04T04:21:59.102Z,8.20
2018-11-04T04:24:27.396Z,8.20
2018-11-04T04:26:55.673Z,8.20
2018-11-04T04:29:23.978Z,8.20
2018-11-04T04:31:52.243Z,8.20
2018-11-04T04:34:20.513Z,8.20
2018-11-04T04:36:48.814Z,8.20
2018-11-04T04:39:17.089Z,8.20
2018-11-04T04:41:45.410Z,8.20
2018-11-04T04:44:20.329Z,8.20
2018-11-04T04:46:48.605Z,8.20
2018-11-04T04:49:23.333Z,8.20
2018-11-04T04:51:51.673Z,8.20
2018-11-04T04:54:19.941Z,8.20
2018-11-04T04:56:48.237Z,8.20
2018-11-04T04:59:16.519Z,8.20
2018-11-04T05:01:44.801Z,8.20
2018-11-04T05:04:13.079Z,8.30
2018-11-04T05:06:41.353Z,8.20
2018-11-04T05:09:09.643Z,8.20
2018-11-04T05:11:37.967Z,8.20
2018-11-04T05:14:06.252Z,8.20
2018-11-04T05:16:34.527Z,8.20
2018-11-04T05:19:02.806Z,8.20
2018-11-04T05:21:31.509Z,8.20
2018-11-04T05:23:59.791Z,8.20
2018-11-04T05:26:28.089Z,8.20
2018-11-04T05:28:56.388Z,8.20
2018-11-04T05:31:24.672Z,8.20
2018-11-04T05:33:52.957Z,8.20
2018-11-04T05:36:21.253Z,8.20
2018-11-04T05:38:49.533Z,8.20
2018-11-04T05:41:24.323Z,8.20
2018-11-04T05:43:52.613Z,8.20
2018-11-04T05:46:20.917Z,8.20
2018-11-04T05:48:49.201Z,8.20
2018-11-04T05:51:17.779Z,8.20
2018-11-04T05:53:46.071Z,8.30
2018-11-04T05:56:14.350Z,8.20
2018-11-04T05:58:42.639Z,8.20
2018-11-04T06:01:10.930Z,8.20
2018-11-04T06:03:39.209Z,8.20
2018-11-04T06:06:07.520Z,8.20
2018-11-04T06:08:35.804Z,8.30
2018-11-04T06:11:04.130Z,8.30
2018-11-04T06:13:32.418Z,8.30
2018-11-04T06:16:00.693Z,8.30
2018-11-04T06:18:28.972Z,8.30
2018-11-04T06:20:57.270Z,8.30
2018-11-04T06:23:25.564Z,8.30
2018-11-04T06:25:53.847Z,8.30
2018-11-04T06:28:22.139Z,8.30
2018-11-04T06:30:50.422Z,8.30
2018-11-04T06:33:18.729Z,8.30
2018-11-04T06:35:47.008Z,8.30
2018-11-04T06:38:15.303Z,8.30
2018-11-04T06:40:43.574Z,8.30
2018-11-04T06:43:11.870Z,8.30
2018-11-04T06:45:40.150Z,8.30
2018-11-04T06:48:08.431Z,8.30
2018-11-04T06:50:36.734Z,8.30
2018-11-04T06:53:05.564Z,8.40
2018-11-04T06:55:33.872Z,8.30
2018-11-04T06:58:02.458Z,8.40
2018-11-04T07:00:30.739Z,8.40
2018-11-04T07:02:59.026Z,8.40
2018-11-04T07:05:27.307Z,8.50
2018-11-04T07:07:55.625Z,8.50
2018-11-04T07:10:23.916Z,8.50
2018-11-04T07:12:52.186Z,8.60
2018-11-04T07:15:20.498Z,8.60
2018-11-04T07:17:48.805Z,8.60
2018-11-04T07:20:17.078Z,8.60
2018-11-04T07:22:45.388Z,8.70
2018-11-04T07:25:13.660Z,8.70
2018-11-04T07:27:41.974Z,8.70
2018-11-04T07:30:11.590Z,8.70
2018-11-04T07:32:41.092Z,8.80
2018-11-04T07:35:09.884Z,8.80
2018-11-04T07:37:38.590Z,8.90
2018-11-04T07:40:07.599Z,9.00
2018-11-04T07:42:35.942Z,9.00
2018-11-04T07:45:04.248Z,9.10
2018-11-04T07:47:32.524Z,9.10
2018-11-04T07:52:35.454Z,9.20
2018-11-04T07:55:07.211Z,9.30
2018-11-04T07:57:37.346Z,9.30
2018-11-04T08:00:07.499Z,9.40
2018-11-04T08:02:35.860Z,9.40
2018-11-04T08:05:04.245Z,9.50
2018-11-04T08:07:33.188Z,9.50
2018-11-04T08:10:01.473Z,9.60
2018-11-04T08:12:29.777Z,9.60
2018-11-04T08:14:58.149Z,9.60
2018-11-04T08:17:26.769Z,9.60
2018-11-04T08:19:55.075Z,9.70
2018-11-04T08:22:23.376Z,9.70
2018-11-04T08:24:51.689Z,9.80
2018-11-04T08:27:20.010Z,9.90
2018-11-04T08:29:48.316Z,9.90
2018-11-04T08:32:16.613Z,10.00
2018-11-04T08:34:44.906Z,10.00
2018-11-04T08:37:13.205Z,10.10
2018-11-04T08:39:41.583Z,10.20
2018-11-04T08:42:09.873Z,10.30
2018-11-04T08:44:38.177Z,10.40
2018-11-04T08:47:06.709Z,10.40
2018-11-04T08:49:34.989Z,10.40
2018-11-04T08:52:03.289Z,10.50
2018-11-04T08:54:31.589Z,10.50
2018-11-04T08:57:00.267Z,10.60
2018-11-04T08:59:28.613Z,10.60
2018-11-04T09:01:56.933Z,10.60
2018-11-04T09:04:25.378Z,10.60
2018-11-04T09:06:54.062Z,10.70
2018-11-04T09:09:22.330Z,10.70
2018-11-04T09:11:50.650Z,10.60
2018-11-04T09:14:19.329Z,10.60
2018-11-04T09:16:48.144Z,10.60
2018-11-04T09:19:16.583Z,10.50
2018-11-04T09:21:45.305Z,10.60
2018-11-04T09:24:14.451Z,10.60
2018-11-04T09:26:43.720Z,10.70
2018-11-04T09:29:12.085Z,10.70
2018-11-04T09:31:40.334Z,10.90
2018-11-04T09:34:09.330Z,10.90
2018-11-04T09:36:37.717Z,11.00
2018-11-04T09:39:08.021Z,11.20
2018-11-04T09:41:36.320Z,11.30
2018-11-04T09:44:04.828Z,11.30
2018-11-04T09:46:33.380Z,11.30
2018-11-04T09:49:01.696Z,11.40
2018-11-04T09:51:29.977Z,11.40
2018-11-04T09:53:58.313Z,11.50
2018-11-04T09:56:26.859Z,11.60
2018-11-04T09:58:55.143Z,11.70
2018-11-04T10:01:23.571Z,11.80
2018-11-04T10:03:51.854Z,11.90
2018-11-04T10:06:20.185Z,11.90
2018-11-04T10:08:48.545Z,12.00
2018-11-04T10:11:16.858Z,12.00
2018-11-04T10:13:45.155Z,12.00
2018-11-04T10:16:13.534Z,12.10
2018-11-04T10:18:41.907Z,12.20
2018-11-04T10:21:10.705Z,12.30
2018-11-04T10:23:38.805Z,12.40
2018-11-04T10:26:07.120Z,12.50
2018-11-04T10:28:35.427Z,12.60
2018-11-04T10:31:03.787Z,12.60
2018-11-04T10:33:32.191Z,12.60
2018-11-04T10:36:00.539Z,12.60
2018-11-04T10:38:28.864Z,12.70
2018-11-04T10:40:57.219Z,12.70
2018-11-04T10:43:25.525Z,12.60
2018-11-04T10:45:53.868Z,12.60
2018-11-04T10:48:22.201Z,12.60
2018-11-04T10:50:50.564Z,12.40
2018-11-04T10:53:18.881Z,12.30
2018-11-04T10:55:48.008Z,12.20
2018-11-04T10:58:16.242Z,12.20
2018-11-04T11:00:49.940Z,12.20
2018-11-04T11:03:18.283Z,12.10
2018-11-04T11:05:46.701Z,12.10
2018-11-04T11:08:15.565Z,12.20
2018-11-04T11:10:43.883Z,12.20
2018-11-04T11:13:12.334Z,12.20
2018-11-04T11:15:40.719Z,12.10
2018-11-04T11:18:09.057Z,12.00
2018-11-04T11:20:37.377Z,12.00
2018-11-04T11:23:05.829Z,11.90
2018-11-04T11:25:34.099Z,11.90
2018-11-04T11:28:02.415Z,12.00
2018-11-04T11:30:30.734Z,11.90
2018-11-04T11:32:59.054Z,11.90
2018-11-04T11:35:27.341Z,11.90
2018-11-04T11:37:55.769Z,12.00
2018-11-04T11:40:23.973Z,11.90
2018-11-04T11:42:52.296Z,12.00
2018-11-04T11:45:27.421Z,12.00
2018-11-04T11:47:55.876Z,11.90
2018-11-04T11:50:24.177Z,12.00
2018-11-04T11:52:53.204Z,12.00
2018-11-04T11:55:21.507Z,12.00
2018-11-04T11:57:49.870Z,12.00
2018-11-04T12:00:18.177Z,12.00
2018-11-04T12:02:46.503Z,12.10
2018-11-04T12:05:15.870Z,12.10
2018-11-04T12:07:44.147Z,12.10
2018-11-04T12:10:13.365Z,12.20
2018-11-04T12:12:41.703Z,12.20
2018-11-04T12:15:11.495Z,12.20
2018-11-04T12:17:39.965Z,12.20
2018-11-04T12:20:09.559Z,12.30
2018-11-04T12:22:37.912Z,12.30
2018-11-04T12:25:07.875Z,12.30
2018-11-04T12:27:36.180Z,12.40
2018-11-04T12:30:05.307Z,12.40
2018-11-04T12:32:33.646Z,12.40
2018-11-04T12:35:02.693Z,12.40
2018-11-04T12:37:30.998Z,12.40
2018-11-04T12:39:59.321Z,12.40
2018-11-04T12:42:27.836Z,12.40
2018-11-04T12:44:56.131Z,12.40
2018-11-04T12:47:24.461Z,12.30
2018-11-04T12:49:52.782Z,12.30
2018-11-04T12:52:21.107Z,12.30
2018-11-04T12:54:49.403Z,12.30
2018-11-04T12:57:17.750Z,12.30
2018-11-04T12:59:46.062Z,12.20
2018-11-04T13:02:14.372Z,12.20
2018-11-04T13:04:42.734Z,12.30
2018-11-04T13:07:11.108Z,12.30
2018-11-04T13:09:40.091Z,12.40
2018-11-04T13:12:08.505Z,12.40
2018-11-04T13:14:37.139Z,12.40
2018-11-04T13:17:05.551Z,12.40
2018-11-04T13:19:33.866Z,12.30
2018-11-04T13:22:02.540Z,12.30
2018-11-04T13:24:30.858Z,12.30
2018-11-04T13:26:59.200Z,12.40
2018-11-04T13:29:27.531Z,12.40
2018-11-04T13:31:55.830Z,12.50
2018-11-04T13:34:24.146Z,12.50
2018-11-04T13:36:52.469Z,12.50
2018-11-04T13:39:22.043Z,12.50
2018-11-04T13:41:50.390Z,12.60
2018-11-04T13:44:18.704Z,12.60
2018-11-04T13:46:47.050Z,12.60
2018-11-04T13:49:15.374Z,12.60
2018-11-04T13:51:43.674Z,12.60
2018-11-04T13:54:12.019Z,12.60
2018-11-04T13:56:41.613Z,12.60
2018-11-04T13:59:09.909Z,12.60
2018-11-04T14:01:38.243Z,12.60
2018-11-04T14:04:06.571Z,12.60
2018-11-04T14:06:35.209Z,12.60
2018-11-04T14:09:05.165Z,12.60
2018-11-04T14:11:33.631Z,12.50
2018-11-04T14:14:01.965Z,12.50
2018-11-04T14:16:30.296Z,12.50
2018-11-04T14:18:58.725Z,12.50
2018-11-04T14:21:27.096Z,12.50
2018-11-04T14:23:55.555Z,12.50
2018-11-04T14:26:23.772Z,12.40
2018-11-04T14:28:52.097Z,12.30
2018-11-04T14:31:20.433Z,12.30
2018-11-04T14:33:48.790Z,12.30
2018-11-04T14:36:17.207Z,12.30
2018-11-04T14:38:45.582Z,12.30
2018-11-04T14:41:13.931Z,12.20
2018-11-04T14:43:43.001Z,12.10
2018-11-04T14:46:11.337Z,12.10
2018-11-04T14:48:39.668Z,12.10
2018-11-04T14:51:07.990Z,12.00
2018-11-04T14:53:36.297Z,11.90
2018-11-04T14:56:04.941Z,12.00
2018-11-04T14:58:33.265Z,11.90
2018-11-04T15:01:01.607Z,11.90
2018-11-04T15:03:29.946Z,11.80
2018-11-04T15:05:58.277Z,11.80
2018-11-04T15:08:26.636Z,11.70
2018-11-04T15:10:55.049Z,11.60
2018-11-04T15:13:23.349Z,11.60
2018-11-04T15:15:51.850Z,11.50
2018-11-04T15:18:21.075Z,11.40
2018-11-04T15:20:50.055Z,11.30
2018-11-04T15:23:18.429Z,11.20
2018-11-04T15:25:47.285Z,11.10
2018-11-04T15:28:15.593Z,11.00
2018-11-04T15:30:44.030Z,11.00
2018-11-04T15:33:12.337Z,10.90
2018-11-04T15:35:40.722Z,10.90
2018-11-04T15:38:10.047Z,10.90
2018-11-04T15:40:38.439Z,11.00
2018-11-04T15:43:06.780Z,10.90
2018-11-04T15:45:35.126Z,10.80
2018-11-04T15:48:03.561Z,10.70
2018-11-04T15:50:31.885Z,10.60
2018-11-04T15:53:00.225Z,10.50
2018-11-04T15:55:28.534Z,10.40
2018-11-04T15:57:56.875Z,10.20
2018-11-04T16:00:25.234Z,10.20
2018-11-04T16:02:53.619Z,10.10
2018-11-04T16:05:22.056Z,10.00
2018-11-04T16:07:50.348Z,9.90
2018-11-04T16:10:18.687Z,9.80
2018-11-04T16:12:47.018Z,9.70
2018-11-04T16:15:15.821Z,9.70
2018-11-04T16:17:44.801Z,9.70
2018-11-04T16:20:14.339Z,9.60
2018-11-04T16:22:43.424Z,9.60
2018-11-04T16:25:12.375Z,9.50
2018-11-04T16:27:41.038Z,9.50
2018-11-04T16:30:10.547Z,9.40
2018-11-04T16:32:39.160Z,9.30
2018-11-04T16:35:08.959Z,9.20
2018-11-04T16:37:37.560Z,9.20
2018-11-04T16:40:06.511Z,9.20
2018-11-04T16:42:35.798Z,9.20
2018-11-04T16:45:05.013Z,9.20
2018-11-04T16:47:33.406Z,9.10
2018-11-04T16:50:01.876Z,9.10
2018-11-04T16:52:30.151Z,9.00
2018-11-04T16:54:58.527Z,9.00
2018-11-04T16:57:27.522Z,9.00
2018-11-04T16:59:55.993Z,8.90
2018-11-04T17:02:24.408Z,8.90
2018-11-04T17:04:52.857Z,8.90
2018-11-04T17:07:21.158Z,8.90
2018-11-04T17:09:49.548Z,8.90
2018-11-04T17:12:17.935Z,8.90
2018-11-04T17:14:46.336Z,9.00
2018-11-04T17:17:14.774Z,9.00
2018-11-04T17:19:43.181Z,9.10
2018-11-04T17:22:11.863Z,9.20
2018-11-04T17:24:40.260Z,9.30
2018-11-04T17:27:09.001Z,9.40
2018-11-04T17:29:37.399Z,9.50
2018-11-04T17:32:05.879Z,9.60
2018-11-04T17:34:34.360Z,9.60
2018-11-04T17:37:03.958Z,9.70
2018-11-04T17:39:32.423Z,9.70
2018-11-04T17:42:01.349Z,9.80
2018-11-04T17:44:29.967Z,9.80
2018-11-04T17:46:58.343Z,9.80
2018-11-04T17:49:27.182Z,9.80
2018-11-04T17:51:55.693Z,9.90
2018-11-04T17:54:24.175Z,9.90
2018-11-04T17:56:53.179Z,9.90
2018-11-04T17:59:21.609Z,9.90
2018-11-04T18:01:50.021Z,9.90
2018-11-04T18:04:18.774Z,9.90
2018-11-04T18:06:47.205Z,9.90
2018-11-04T18:09:15.619Z,9.90
2018-11-04T18:11:44.659Z,9.90
2018-11-04T18:14:13.294Z,9.90
2018-11-04T18:16:41.838Z,9.90
2018-11-04T18:19:11.611Z,9.90
2018-11-04T18:21:40.210Z,9.90
2018-11-04T18:24:08.991Z,9.90
2018-11-04T18:26:38.532Z,9.90
2018-11-04T18:29:07.059Z,9.90
2018-11-04T18:31:35.990Z,9.90
2018-11-04T18:34:04.832Z,9.90
2018-11-04T18:36:33.474Z,9.90
2018-11-04T18:39:01.914Z,9.90
2018-11-04T18:41:30.410Z,9.90
2018-11-04T18:43:59.003Z,9.90
2018-11-04T18:46:28.043Z,9.90
2018-11-04T18:48:56.594Z,9.90
2018-11-04T18:51:25.562Z,9.90
2018-11-04T18:53:54.318Z,9.90
2018-11-04T18:56:23.276Z,9.90
2018-11-04T18:58:52.456Z,9.90
2018-11-04T19:01:21.898Z,9.90
2018-11-04T19:03:50.365Z,10.00
2018-11-04T19:06:19.068Z,10.00
2018-11-04T19:08:47.532Z,10.00
2018-11-04T19:11:16.266Z,10.00
2018-11-04T19:13:44.813Z,10.00
2018-11-04T19:16:13.569Z,10.00
2018-11-04T19:18:42.058Z,10.00
2018-11-04T19:21:10.593Z,10.00
2018-11-04T19:23:39.201Z,10.00
2018-11-04T19:26:08.247Z,10.00
2018-11-04T19:28:36.667Z,10.10
2018-11-04T19:31:05.425Z,10.00
2018-11-04T19:33:34.357Z,10.00
2018-11-04T19:36:02.863Z,10.00
2018-11-04T19:38:32.115Z,10.10
2018-11-04T19:41:01.102Z,10.10
2018-11-04T19:43:29.563Z,10.20
2018-11-04T19:45:59.035Z,10.20
2018-11-04T19:48:27.505Z,10.10
2018-11-04T19:50:56.272Z,10.10
2018-11-04T19:53:25.063Z,10.10
2018-11-04T19:55:53.553Z,10.10
2018-11-04T19:58:22.127Z,10.10
2018-11-04T20:00:51.440Z,10.10
2018-11-04T20:03:19.919Z,10.10
2018-11-04T20:05:48.459Z,10.10
2018-11-04T20:08:16.941Z,10.10
2018-11-04T20:10:45.449Z,10.10
2018-11-04T20:13:19.494Z,10.10
2018-11-04T20:15:47.911Z,10.10
2018-11-04T20:18:21.775Z,10.10
2018-11-04T20:20:50.452Z,10.10
2018-11-04T20:23:19.095Z,10.20
2018-11-04T20:25:53.123Z,10.10
2018-11-04T20:28:21.403Z,10.10
2018-11-04T20:30:50.815Z,10.10
2018-11-04T20:33:19.838Z,10.10
2018-11-04T20:35:48.709Z,10.10
2018-11-04T20:38:17.238Z,10.20
2018-11-04T20:40:51.580Z,10.10
2018-11-04T20:43:20.003Z,10.10
2018-11-04T20:45:48.484Z,10.10
2018-11-04T20:48:22.398Z,10.10
2018-11-04T20:50:58.706Z,10.10
2018-11-04T20:53:27.197Z,10.10
2018-11-04T20:57:03.933Z,10.20
2018-11-04T20:59:33.281Z,10.20
2018-11-04T21:02:01.807Z,10.10
2018-11-04T21:04:30.232Z,10.10
2018-11-04T21:06:58.675Z,10.10
2018-11-04T21:09:27.617Z,10.10
2018-11-04T21:11:55.998Z,10.20
2018-11-04T21:14:24.607Z,10.20
2018-11-04T21:16:52.975Z,10.20
2018-11-04T21:19:21.437Z,10.20
2018-11-04T21:21:49.840Z,10.20
2018-11-04T21:24:18.275Z,10.20
2018-11-04T21:26:46.689Z,10.20
2018-11-04T21:29:15.210Z,10.20
2018-11-04T21:31:43.511Z,10.20
2018-11-04T21:34:11.953Z,10.20
2018-11-04T21:36:41.376Z,10.20
2018-11-04T21:39:10.648Z,10.20
2018-11-04T21:41:39.373Z,10.20
2018-11-04T21:44:07.988Z,10.10
2018-11-04T21:46:36.259Z,10.10
2018-11-04T21:49:05.065Z,10.20
2018-11-04T21:51:33.409Z,10.20
2018-11-04T21:54:02.081Z,10.10
2018-11-04T21:56:30.620Z,10.10
2018-11-04T21:58:58.779Z,10.10
2018-11-04T22:01:27.118Z,10.10
2018-11-04T22:03:57.290Z,10.10
2018-11-04T22:06:25.360Z,10.10
2018-11-04T22:08:53.682Z,10.20
2018-11-04T22:11:25.979Z,10.10
2018-11-04T22:13:54.657Z,10.10
2018-11-04T22:16:22.952Z,10.10
2018-11-04T22:18:51.273Z,10.10
2018-11-04T22:21:20.328Z,10.10
2018-11-04T22:23:48.651Z,10.10
2018-11-04T22:26:16.997Z,10.10
2018-11-04T22:28:45.319Z,10.00
2018-11-04T22:31:13.617Z,10.10
2018-11-04T22:33:42.079Z,10.10
2018-11-04T22:36:10.435Z,10.10
2018-11-04T22:38:38.766Z,10.10
2018-11-04T22:41:07.085Z,10.10
2018-11-04T22:43:35.578Z,10.00
2018-11-04T22:46:03.911Z,10.00
2018-11-04T22:48:33.084Z,10.00
2018-11-04T22:51:01.387Z,10.00
2018-11-04T22:53:29.695Z,10.00
2018-11-04T22:55:58.071Z,10.00
2018-11-04T22:58:26.307Z,10.00
2018-11-04T23:00:58.787Z,10.00
2018-11-04T23:03:27.181Z,10.00
2018-11-04T23:05:55.467Z,10.00
2018-11-04T23:08:23.751Z,10.10
2018-11-04T23:10:52.035Z,10.00
2018-11-04T23:13:20.351Z,10.00
2018-11-04T23:15:48.629Z,10.00
2018-11-04T23:18:16.928Z,10.00
2018-11-04T23:20:45.215Z,10.00
2018-11-04T23:23:13.541Z,10.00
2018-11-04T23:25:41.846Z,10.00
2018-11-04T23:28:10.155Z,10.00
2018-11-04T23:30:38.460Z,10.00
2018-11-04T23:33:06.743Z,10.00
2018-11-04T23:35:35.048Z,10.00
2018-11-04T23:38:03.327Z,10.00
2018-11-04T23:40:31.617Z,10.00
2018-11-04T23:42:59.927Z,10.00
2018-11-04T23:45:28.258Z,10.00
2018-11-04T23:47:56.561Z,10.00
2018-11-04T23:50:24.873Z,10.00
2018-11-04T23:52:53.153Z,10.00
2018-11-04T23:55:21.444Z,9.90
2018-11-04T23:57:49.730Z,10.00
